createdAt,value
2018-09-22T00:00:19.665Z,4.37
2018-09-22T00:02:48.755Z,4.70
2018-09-22T00:05:18.212Z,5.10
2018-09-22T00:07:48.476Z,4.27
2018-09-22T00:10:18.317Z,6.40
2018-09-22T00:12:47.790Z,4.73
2018-09-22T00:15:16.795Z,3.83
2018-09-22T00:17:46.777Z,3.30
2018-09-22T00:20:15.605Z,4.23
2018-09-22T00:22:44.930Z,9.73
2018-09-22T00:25:13.848Z,4.03
2018-09-22T00:27:43.251Z,5.93
2018-09-22T00:30:12.041Z,3.70
2018-09-22T00:32:40.804Z,3.87
2018-09-22T00:35:10.937Z,4.57
2018-09-22T00:37:39.745Z,2.33
2018-09-22T00:40:09.053Z,5.00
2018-09-22T00:42:37.925Z,4.33
2018-09-22T00:45:07.503Z,3.40
2018-09-22T00:47:37.038Z,3.40
2018-09-22T00:50:06.055Z,3.67
2018-09-22T00:52:35.438Z,4.40
2018-09-22T00:55:04.395Z,4.17
2018-09-22T00:57:33.857Z,7.33
2018-09-22T01:00:03.386Z,5.40
2018-09-22T01:02:32.155Z,5.00
2018-09-22T01:05:01.530Z,4.57
2018-09-22T01:07:30.312Z,8.73
2018-09-22T01:09:59.093Z,5.87
2018-09-22T01:12:27.895Z,6.20
2018-09-22T01:14:56.723Z,4.07
2018-09-22T01:17:27.156Z,5.50
2018-09-22T01:19:55.921Z,3.87
2018-09-22T01:22:25.464Z,5.60
2018-09-22T01:24:54.294Z,6.37
2018-09-22T01:27:23.645Z,5.00
2018-09-22T01:29:52.419Z,4.67
2018-09-22T01:32:20.182Z,6.47
2018-09-22T01:34:50.137Z,5.70
2018-09-22T01:37:19.475Z,6.07
2018-09-22T01:39:49.238Z,4.23
2018-09-22T01:42:18.427Z,6.40
2018-09-22T01:44:47.415Z,6.23
2018-09-22T01:47:17.279Z,5.50
2018-09-22T01:49:46.210Z,4.70
2018-09-22T01:52:16.174Z,4.07
2018-09-22T01:54:44.919Z,5.83
2018-09-22T01:57:14.766Z,5.60
2018-09-22T01:59:44.271Z,5.83
2018-09-22T02:02:13.060Z,3.33
2018-09-22T02:04:42.491Z,9.10
2018-09-22T02:07:11.303Z,7.70
2018-09-22T02:09:40.109Z,8.67
2018-09-22T02:12:08.936Z,5.73
2018-09-22T02:14:37.932Z,5.80
2018-09-22T02:17:07.776Z,7.40
2018-09-22T02:19:37.756Z,4.67
2018-09-22T02:22:07.423Z,5.00
2018-09-22T02:24:36.379Z,5.87
2018-09-22T02:28:09.224Z,8.07
2018-09-22T02:30:38.036Z,4.43
2018-09-22T02:33:08.117Z,9.87
2018-09-22T02:35:37.001Z,5.80
2018-09-22T02:38:05.786Z,6.93
2018-09-22T02:40:34.746Z,7.53
2018-09-22T02:43:03.532Z,8.40
2018-09-22T02:45:32.499Z,6.80
2018-09-22T02:48:01.813Z,6.03
2018-09-22T02:50:30.595Z,6.77
2018-09-22T02:53:00.246Z,8.00
2018-09-22T02:55:29.147Z,8.13
2018-09-22T02:57:58.485Z,6.30
2018-09-22T03:00:27.711Z,7.27
2018-09-22T03:02:56.437Z,9.27
2018-09-22T03:05:25.173Z,8.60
2018-09-22T03:07:54.017Z,6.57
2018-09-22T03:10:22.811Z,9.27
2018-09-22T03:12:51.727Z,7.80
2018-09-22T03:15:20.598Z,8.33
2018-09-22T03:17:50.254Z,10.40
2018-09-22T03:20:19.296Z,5.10
2018-09-22T03:22:49.049Z,6.47
2018-09-22T03:25:18.571Z,8.03
2018-09-22T03:27:48.656Z,7.27
2018-09-22T03:30:18.444Z,9.60
2018-09-22T03:32:47.517Z,9.87
2018-09-22T03:35:17.244Z,8.30
2018-09-22T03:37:46.962Z,10.17
2018-09-22T03:40:16.396Z,11.67
2018-09-22T03:42:45.558Z,6.90
2018-09-22T03:45:14.420Z,6.97
2018-09-22T03:47:43.853Z,7.47
2018-09-22T03:50:12.632Z,6.03
2018-09-22T03:52:42.409Z,11.43
2018-09-22T03:55:11.207Z,9.63
2018-09-22T03:57:40.236Z,13.50
2018-09-22T04:00:10.132Z,7.30
2018-09-22T04:02:38.945Z,7.37
2018-09-22T04:05:07.755Z,8.77
2018-09-22T04:07:36.787Z,10.30
2018-09-22T04:10:05.689Z,8.93
2018-09-22T04:12:34.724Z,8.77
2018-09-22T04:15:36.008Z,12.43
2018-09-22T04:18:06.001Z,15.97
2018-09-22T04:20:34.838Z,9.07
2018-09-22T04:23:03.736Z,13.67
2018-09-22T04:25:32.547Z,8.97
2018-09-22T04:28:02.290Z,10.93
2018-09-22T04:30:32.304Z,7.20
2018-09-22T04:33:01.072Z,9.03
2018-09-22T04:35:30.327Z,12.67
2018-09-22T04:37:59.101Z,11.03
2018-09-22T04:40:27.860Z,11.50
2018-09-22T04:42:56.704Z,12.67
2018-09-22T04:45:25.471Z,11.67
2018-09-22T04:47:54.775Z,15.60
2018-09-22T04:50:23.577Z,10.50
2018-09-22T04:52:53.403Z,13.30
2018-09-22T04:55:22.243Z,14.80
2018-09-22T04:57:51.516Z,12.10
2018-09-22T05:00:20.980Z,15.13
2018-09-22T05:02:49.854Z,13.77
2018-09-22T05:05:18.857Z,15.40
2018-09-22T05:07:47.943Z,11.97
2018-09-22T05:10:16.820Z,18.03
2018-09-22T05:12:45.741Z,17.93
2018-09-22T05:15:14.543Z,15.03
2018-09-22T05:17:44.071Z,10.20
2018-09-22T05:20:12.833Z,12.57
2018-09-22T05:22:41.593Z,9.60
2018-09-22T05:25:10.408Z,12.53
2018-09-22T05:27:39.980Z,17.60
2018-09-22T05:30:09.508Z,12.13
2018-09-22T05:32:38.447Z,15.87
2018-09-22T05:35:07.854Z,12.80
2018-09-22T05:37:36.753Z,10.27
2018-09-22T05:40:06.085Z,16.77
2018-09-22T05:42:35.000Z,11.47
2018-09-22T05:45:03.796Z,13.80
2018-09-22T05:47:33.467Z,16.67
2018-09-22T05:50:02.247Z,11.90
2018-09-22T05:52:31.795Z,17.97
2018-09-22T05:55:01.512Z,9.10
2018-09-22T05:57:30.287Z,12.27
2018-09-22T05:59:59.793Z,9.30
2018-09-22T06:02:28.595Z,14.57
2018-09-22T06:04:57.500Z,11.63
2018-09-22T06:07:26.281Z,14.77
2018-09-22T06:09:55.055Z,13.67
2018-09-22T06:12:23.983Z,10.97
2018-09-22T06:14:52.929Z,13.23
2018-09-22T06:17:22.665Z,15.07
2018-09-22T06:19:52.216Z,13.70
2018-09-22T06:22:20.990Z,13.77
2018-09-22T06:24:49.879Z,11.10
2018-09-22T06:27:19.640Z,12.87
2018-09-22T06:29:49.632Z,11.00
2018-09-22T06:32:18.644Z,11.30
2018-09-22T06:34:49.033Z,12.13
2018-09-22T06:37:17.991Z,10.90
2018-09-22T06:39:47.042Z,11.27
2018-09-22T06:42:16.007Z,11.37
2018-09-22T06:44:44.824Z,11.07
2018-09-22T06:47:14.427Z,12.20
2018-09-22T06:49:43.418Z,11.17
2018-09-22T06:52:12.980Z,24.07
2018-09-22T06:54:41.806Z,11.03
2018-09-22T06:57:10.728Z,10.97
2018-09-22T06:59:40.149Z,18.00
2018-09-22T07:02:09.085Z,13.63
2018-09-22T07:04:39.541Z,11.70
2018-09-22T07:07:08.555Z,11.53
2018-09-22T07:09:37.985Z,9.40
2018-09-22T07:12:07.076Z,15.53
2018-09-22T07:14:36.090Z,12.00
2018-09-22T07:17:05.655Z,15.80
2018-09-22T07:19:35.303Z,13.57
2018-09-22T07:22:09.292Z,12.87
2018-09-22T07:24:39.029Z,15.63
2018-09-22T07:27:08.908Z,12.17
2018-09-22T07:29:38.519Z,17.00
2018-09-22T07:32:07.553Z,12.43
2018-09-22T07:34:37.400Z,14.03
2018-09-22T07:37:06.259Z,13.97
2018-09-22T07:39:35.285Z,9.23
2018-09-22T07:42:04.265Z,7.70
2018-09-22T07:44:33.274Z,10.67
2018-09-22T07:47:02.195Z,8.80
2018-09-22T07:49:32.031Z,8.97
2018-09-22T07:52:01.622Z,11.63
2018-09-22T07:54:32.312Z,9.30
2018-09-22T07:57:01.127Z,11.40
2018-09-22T07:59:30.601Z,9.30
2018-09-22T08:01:59.457Z,10.70
2018-09-22T08:04:28.343Z,8.93
2018-09-22T08:06:57.308Z,11.47
2018-09-22T08:09:26.052Z,8.97
2018-09-22T08:11:54.985Z,9.50
2018-09-22T08:14:23.783Z,11.03
2018-09-22T08:16:53.043Z,5.77
2018-09-22T08:19:22.598Z,7.77
2018-09-22T08:21:51.440Z,9.77
2018-09-22T08:24:20.909Z,11.60
2018-09-22T08:26:50.113Z,10.07
2018-09-22T08:29:19.689Z,11.43
2018-09-22T08:31:49.456Z,15.20
2018-09-22T08:34:19.422Z,12.47
2018-09-22T08:36:48.648Z,5.37
2018-09-22T08:39:17.672Z,5.13
2018-09-22T08:41:46.963Z,8.23
2018-09-22T08:44:16.181Z,8.03
2018-09-22T08:49:31.937Z,7.20
2018-09-22T08:52:01.860Z,7.47
2018-09-22T08:54:31.001Z,7.60
2018-09-22T08:57:00.799Z,9.67
2018-09-22T08:59:31.266Z,4.83
2018-09-22T09:02:00.804Z,9.47
2018-09-22T09:04:30.384Z,10.10
2018-09-22T09:07:00.188Z,8.17
2018-09-22T09:09:29.602Z,7.20
2018-09-22T09:11:58.909Z,9.13
2018-09-22T09:14:29.124Z,4.70
2018-09-22T09:16:59.195Z,8.67
2018-09-22T09:19:28.844Z,6.47
2018-09-22T09:21:57.752Z,6.90
2018-09-22T09:24:27.152Z,3.50
2018-09-22T09:26:56.640Z,5.80
2018-09-22T09:29:26.152Z,4.07
2018-09-22T09:31:55.134Z,8.97
2018-09-22T09:34:28.886Z,4.73
2018-09-22T09:39:39.705Z,9.13
2018-09-22T09:42:13.799Z,3.90
2018-09-22T09:44:47.659Z,5.60
2018-09-22T09:47:19.212Z,7.60
2018-09-22T09:49:51.134Z,6.23
2018-09-22T09:52:20.969Z,9.57
2018-09-22T09:57:31.583Z,6.07
2018-09-22T10:00:01.776Z,4.90
2018-09-22T10:05:47.938Z,3.77
2018-09-22T10:08:17.727Z,8.93
2018-09-22T10:10:48.535Z,7.93
2018-09-22T10:15:56.791Z,7.23
2018-09-22T10:18:26.720Z,8.43
2018-09-22T10:23:34.858Z,10.43
2018-09-22T10:26:04.796Z,8.97
2018-09-22T10:28:34.566Z,5.67
2018-09-22T10:31:04.622Z,10.20
2018-09-22T10:33:34.727Z,10.50
2018-09-22T10:36:04.202Z,6.00
2018-09-22T10:38:33.662Z,6.73
2018-09-22T10:41:02.856Z,4.47
2018-09-22T10:43:32.799Z,3.37
2018-09-22T10:46:01.867Z,5.30
2018-09-22T10:48:31.271Z,3.80
2018-09-22T10:51:02.913Z,4.30
2018-09-22T10:53:32.857Z,7.00
2018-09-22T10:56:03.234Z,5.90
2018-09-22T10:58:33.318Z,7.00
2018-09-22T11:01:02.203Z,5.07
2018-09-22T11:03:31.163Z,8.73
2018-09-22T11:06:00.377Z,7.90
2018-09-22T11:08:29.470Z,3.97
2018-09-22T11:10:58.576Z,5.67
2018-09-22T11:13:27.483Z,9.87
2018-09-22T11:15:56.275Z,4.03
2018-09-22T11:18:25.876Z,5.40
2018-09-22T11:20:54.760Z,6.57
2018-09-22T11:23:23.555Z,5.17
2018-09-22T11:25:52.359Z,3.67
2018-09-22T11:28:21.834Z,5.73
2018-09-22T11:30:51.258Z,5.90
2018-09-22T11:33:20.062Z,9.70
2018-09-22T11:35:49.089Z,4.80
2018-09-22T11:38:18.088Z,8.13
2018-09-22T11:40:48.331Z,6.30
2018-09-22T11:43:17.488Z,6.13
2018-09-22T11:45:46.765Z,6.47
2018-09-22T11:48:15.640Z,9.37
2018-09-22T11:51:47.427Z,9.30
2018-09-22T11:54:16.820Z,7.40
2018-09-22T11:56:45.656Z,6.77
2018-09-22T11:59:15.513Z,6.60
2018-09-22T12:01:44.725Z,8.23
2018-09-22T12:04:13.559Z,5.83
2018-09-22T12:06:42.690Z,7.90
2018-09-22T12:09:12.064Z,4.87
2018-09-22T12:11:41.524Z,4.10
2018-09-22T12:14:11.381Z,4.60
2018-09-22T12:16:41.208Z,3.43
2018-09-22T12:19:10.789Z,8.17
2018-09-22T12:21:39.637Z,5.13
2018-09-22T12:24:08.928Z,3.60
2018-09-22T12:26:37.820Z,4.60
2018-09-22T12:29:07.400Z,5.23
2018-09-22T12:31:37.192Z,3.93
2018-09-22T12:34:06.146Z,3.17
2018-09-22T12:36:35.723Z,3.77
2018-09-22T12:39:06.842Z,5.40
2018-09-22T12:41:35.904Z,4.07
2018-09-22T12:44:05.281Z,3.27
2018-09-22T12:46:34.119Z,3.50
2018-09-22T12:49:04.300Z,3.97
2018-09-22T12:51:34.306Z,4.73
2018-09-22T12:54:04.008Z,4.87
2018-09-22T12:56:33.183Z,4.93
2018-09-22T12:59:03.360Z,3.80
2018-09-22T13:01:32.300Z,5.60
2018-09-22T13:04:02.330Z,4.60
2018-09-22T13:06:31.229Z,5.43
2018-09-22T13:09:00.607Z,5.07
2018-09-22T13:11:29.834Z,3.83
2018-09-22T13:13:59.861Z,3.87
2018-09-22T13:16:28.954Z,5.60
2018-09-22T13:18:59.128Z,5.37
2018-09-22T13:21:28.516Z,5.50
2018-09-22T13:23:57.684Z,5.97
2018-09-22T13:26:26.549Z,6.03
2018-09-22T13:28:55.846Z,3.63
2018-09-22T13:31:25.490Z,3.50
2018-09-22T13:33:54.326Z,5.20
2018-09-22T13:36:23.974Z,7.10
2018-09-22T13:38:52.828Z,4.20
2018-09-22T13:41:21.705Z,3.60
2018-09-22T13:43:50.570Z,4.77
2018-09-22T13:46:19.524Z,6.07
2018-09-22T13:48:48.837Z,4.97
2018-09-22T13:51:18.691Z,5.67
2018-09-22T13:53:48.772Z,7.97
2018-09-22T13:59:01.603Z,3.57
2018-09-22T14:01:30.418Z,4.03
2018-09-22T14:03:59.196Z,4.87
2018-09-22T14:06:28.311Z,2.97
2018-09-22T14:08:57.096Z,3.30
2018-09-22T14:11:25.977Z,5.83
2018-09-22T14:13:55.012Z,7.57
2018-09-22T14:16:24.661Z,3.60
2018-09-22T14:18:53.937Z,5.17
2018-09-22T14:21:22.860Z,2.40
2018-09-22T14:23:51.596Z,3.43
2018-09-22T14:26:20.410Z,3.67
2018-09-22T14:28:49.918Z,3.17
2018-09-22T14:31:20.283Z,4.10
2018-09-22T14:33:50.044Z,3.83
2018-09-22T14:36:19.024Z,3.93
2018-09-22T14:38:48.096Z,5.30
2018-09-22T14:41:18.228Z,4.13
2018-09-22T14:43:47.063Z,5.20
2018-09-22T14:46:16.029Z,3.53
2018-09-22T14:48:44.811Z,3.37
2018-09-22T14:51:13.933Z,3.57
2018-09-22T14:53:43.464Z,3.70
2018-09-22T14:56:13.380Z,2.60
2018-09-22T14:58:43.085Z,2.60
2018-09-22T15:01:11.859Z,3.27
2018-09-22T15:03:40.650Z,3.73
2018-09-22T15:06:09.539Z,3.00
2018-09-22T15:08:38.326Z,3.20
2018-09-22T15:11:07.344Z,6.27
2018-09-22T15:13:36.287Z,7.70
2018-09-22T15:16:05.772Z,5.13
2018-09-22T15:18:35.198Z,5.67
2018-09-22T15:21:04.013Z,5.50
2018-09-22T15:23:32.776Z,6.73
2018-09-22T15:26:01.572Z,3.03
2018-09-22T15:28:31.228Z,4.27
2018-09-22T15:31:00.752Z,8.17
2018-09-22T15:33:30.133Z,6.17
2018-09-22T15:35:58.899Z,5.90
2018-09-22T15:38:27.784Z,6.90
2018-09-22T15:40:57.314Z,5.17
2018-09-22T15:43:26.197Z,4.60
2018-09-22T15:45:55.817Z,3.63
2018-09-22T15:48:24.944Z,4.93
2018-09-22T15:50:53.651Z,3.73
2018-09-22T15:53:23.111Z,3.93
2018-09-22T15:55:51.927Z,2.07
2018-09-22T15:58:22.354Z,4.00
2018-09-22T16:00:51.167Z,4.10
2018-09-22T16:03:20.125Z,4.00
2018-09-22T16:05:49.268Z,5.83
2018-09-22T16:08:18.908Z,3.63
2018-09-22T16:10:48.376Z,4.37
2018-09-22T16:13:17.562Z,4.30
2018-09-22T16:15:47.716Z,3.63
2018-09-22T16:18:17.779Z,4.70
2018-09-22T16:20:46.637Z,3.97
2018-09-22T16:23:15.491Z,2.67
2018-09-22T16:25:44.339Z,3.83
2018-09-22T16:28:13.620Z,5.03
2018-09-22T16:30:43.646Z,3.87
2018-09-22T16:33:12.429Z,8.47
2018-09-22T16:35:41.656Z,5.63
2018-09-22T16:38:10.418Z,6.33
2018-09-22T16:40:39.653Z,6.57
2018-09-22T16:43:08.543Z,4.33
2018-09-22T16:45:37.503Z,4.30
2018-09-22T16:48:06.512Z,4.90
2018-09-22T16:50:35.425Z,6.87
2018-09-22T16:53:05.270Z,3.97
2018-09-22T16:55:34.035Z,3.97
2018-09-22T16:58:03.463Z,3.43
2018-09-22T17:00:32.218Z,8.87
2018-09-22T17:03:00.991Z,4.27
2018-09-22T17:05:29.772Z,3.97
2018-09-22T17:07:58.541Z,4.53
2018-09-22T17:10:27.406Z,4.50
2018-09-22T17:12:56.373Z,2.90
2018-09-22T17:15:25.140Z,6.60
2018-09-22T17:17:55.039Z,4.53
2018-09-22T17:20:23.786Z,6.43
2018-09-22T17:22:52.660Z,5.83
2018-09-22T17:25:22.027Z,6.20
2018-09-22T17:27:51.612Z,6.27
2018-09-22T17:30:20.859Z,4.87
2018-09-22T17:32:49.828Z,6.27
2018-09-22T17:35:20.132Z,5.87
2018-09-22T17:37:49.269Z,3.17
2018-09-22T17:40:18.935Z,5.90
2018-09-22T17:42:48.079Z,5.93
2018-09-22T17:45:17.561Z,7.07
2018-09-22T17:47:46.711Z,5.10
2018-09-22T17:50:15.554Z,5.53
2018-09-22T17:52:44.972Z,4.77
2018-09-22T17:55:13.716Z,3.00
2018-09-22T17:57:42.957Z,6.13
2018-09-22T18:00:12.253Z,6.60
2018-09-22T18:02:41.031Z,4.03
2018-09-22T18:05:09.815Z,9.77
2018-09-22T18:07:38.717Z,7.00
2018-09-22T18:10:07.667Z,3.87
2018-09-22T18:12:36.639Z,6.30
2018-09-22T18:15:05.648Z,6.17
2018-09-22T18:17:35.503Z,4.87
2018-09-22T18:20:04.297Z,5.30
2018-09-22T18:22:33.759Z,4.00
2018-09-22T18:25:02.820Z,5.00
2018-09-22T18:27:32.252Z,4.47
2018-09-22T18:30:01.602Z,2.93
2018-09-22T18:32:30.367Z,4.03
2018-09-22T18:34:59.915Z,5.27
2018-09-22T18:37:28.660Z,3.77
2018-09-22T18:39:57.987Z,5.73
2018-09-22T18:42:26.830Z,4.10
2018-09-22T18:44:55.660Z,4.53
2018-09-22T18:47:24.649Z,3.20
2018-09-22T18:49:53.839Z,5.87
2018-09-22T18:52:23.801Z,4.67
2018-09-22T18:54:52.584Z,3.40
2018-09-22T18:57:21.399Z,4.07
2018-09-22T18:59:50.848Z,5.23
2018-09-22T19:02:19.600Z,4.73
2018-09-22T19:04:49.204Z,2.53
2018-09-22T19:07:18.212Z,5.30
2018-09-22T19:09:47.451Z,4.07
2018-09-22T19:12:16.485Z,4.50
2018-09-22T19:14:53.574Z,7.30
2018-09-22T19:17:27.092Z,3.27
2018-09-22T19:20:14.544Z,5.60
2018-09-22T19:22:46.225Z,3.13
2018-09-22T19:25:17.639Z,4.37
2018-09-22T19:27:50.973Z,2.70
2018-09-22T19:30:26.247Z,3.00
2018-09-22T19:32:58.292Z,5.00
2018-09-22T19:35:33.123Z,2.27
2018-09-22T19:38:06.632Z,3.20
2018-09-22T19:40:42.124Z,7.13
2018-09-22T19:43:29.174Z,2.73
2018-09-22T19:46:08.504Z,3.97
2018-09-22T19:48:40.711Z,5.57
2018-09-22T19:51:11.757Z,3.93
2018-09-22T19:53:42.416Z,4.30
2018-09-22T19:56:11.219Z,4.83
2018-09-22T19:58:41.307Z,2.30
2018-09-22T20:01:10.101Z,3.63
2018-09-22T20:03:38.841Z,2.70
2018-09-22T20:06:07.791Z,2.97
2018-09-22T20:08:36.719Z,3.93
2018-09-22T20:11:06.541Z,4.50
2018-09-22T20:13:35.261Z,6.00
2018-09-22T20:16:04.911Z,3.10
2018-09-22T20:18:34.117Z,3.80
2018-09-22T20:21:02.876Z,3.10
2018-09-22T20:23:31.620Z,3.23
2018-09-22T20:26:00.715Z,5.47
2018-09-22T20:28:30.094Z,4.23
2018-09-22T20:30:59.432Z,3.80
2018-09-22T20:33:29.165Z,4.10
2018-09-22T20:35:57.952Z,3.23
2018-09-22T20:38:26.744Z,8.37
2018-09-22T20:40:56.319Z,3.33
2018-09-22T20:43:25.127Z,4.83
2018-09-22T20:45:53.956Z,4.77
2018-09-22T20:48:22.806Z,6.00
2018-09-22T20:50:51.536Z,2.43
2018-09-22T20:53:20.835Z,4.30
2018-09-22T20:55:49.914Z,6.33
2018-09-22T20:58:20.350Z,4.23
2018-09-22T21:00:49.690Z,5.50
2018-09-22T21:03:18.703Z,4.03
2018-09-22T21:05:48.044Z,6.83
2018-09-22T21:08:17.037Z,3.93
2018-09-22T21:10:46.712Z,4.47
2018-09-22T21:13:15.529Z,3.57
2018-09-22T21:15:44.803Z,9.37
2018-09-22T21:18:14.435Z,6.20
2018-09-22T21:20:43.208Z,4.50
2018-09-22T21:23:12.072Z,6.10
2018-09-22T21:25:40.844Z,5.50
2018-09-22T21:28:10.229Z,2.73
2018-09-22T21:30:39.952Z,4.63
2018-09-22T21:33:08.992Z,2.80
2018-09-22T21:35:38.743Z,5.87
2018-09-22T21:38:08.069Z,6.30
2018-09-22T21:40:37.504Z,4.40
2018-09-22T21:43:06.524Z,4.33
2018-09-22T21:45:35.297Z,3.23
2018-09-22T21:48:04.203Z,4.63
2018-09-22T21:50:32.995Z,3.60
2018-09-22T21:53:02.440Z,5.47
2018-09-22T21:55:31.200Z,3.70
2018-09-22T21:58:00.922Z,7.43
2018-09-22T22:00:29.753Z,9.33
2018-09-22T22:02:58.495Z,5.67
2018-09-22T22:05:27.303Z,7.30
2018-09-22T22:07:56.092Z,5.73
2018-09-22T22:10:25.748Z,5.43
2018-09-22T22:12:55.142Z,3.90
2018-09-22T22:15:23.935Z,4.53
2018-09-22T22:17:53.201Z,7.37
2018-09-22T22:20:21.934Z,5.60
2018-09-22T22:22:50.691Z,6.00
2018-09-22T22:25:19.463Z,6.50
2018-09-22T22:27:49.128Z,6.10
2018-09-22T22:30:19.044Z,5.13
2018-09-22T22:32:47.960Z,7.97
2018-09-22T22:35:17.217Z,5.20
2018-09-22T22:37:46.575Z,4.03
2018-09-22T22:40:16.214Z,4.57
2018-09-22T22:42:45.024Z,5.77
2018-09-22T22:45:13.824Z,6.07
2018-09-22T22:47:42.651Z,8.73
2018-09-22T22:50:11.530Z,4.87
2018-09-22T22:52:41.120Z,8.80
2018-09-22T22:55:09.909Z,5.80
2018-09-22T22:57:38.807Z,3.23
2018-09-22T23:00:08.900Z,8.33
2018-09-22T23:02:37.728Z,7.03
2018-09-22T23:05:06.691Z,4.10
2018-09-22T23:07:36.229Z,4.63
2018-09-22T23:10:05.080Z,7.67
2018-09-22T23:12:34.611Z,3.73
2018-09-22T23:15:03.383Z,3.90
2018-09-22T23:17:33.055Z,7.03
2018-09-22T23:20:01.859Z,8.33
2018-09-22T23:22:30.677Z,8.33
2018-09-22T23:24:59.479Z,7.10
2018-09-22T23:27:29.224Z,7.00
2018-09-22T23:29:59.426Z,8.30
2018-09-22T23:32:28.244Z,4.13
2018-09-22T23:34:57.888Z,4.73
2018-09-22T23:37:26.674Z,7.73
2018-09-22T23:39:55.451Z,5.40
2018-09-22T23:42:24.360Z,8.90
2018-09-22T23:44:53.549Z,6.77
2018-09-22T23:47:22.479Z,7.73
2018-09-22T23:49:51.339Z,4.13
2018-09-22T23:52:21.197Z,6.40
2018-09-22T23:54:49.968Z,6.27
2018-09-22T23:57:18.921Z,8.97
2018-09-22T23:59:49.347Z,7.67
